Atlantic Island — C4VM2 — position and weather

sailwx.info

Track history (hours):
 
Tides and Currents Weather Stations Pressure Air Temp Water Temp Dewpoint Dewpoint Depression Visibility Wind Speed Wind Dir Waves Ship Positions

Atlantic Island

Last reported at 2014-Oct-31 20:16 UTC. Time now 2014-Oct-31 22:21 UTC.
Position N 39°25' W 000°17'.

Length 95 m; draft 3.8 m.

Type: Cargo ship. MMSI: 210754000.

Date/timePositionNaut miles runAvg speedWind from/ knotsBaromVisibWave heightAir tempDewpointWater temp
2014-Oct-31 20:16N 39°25' W 000°17'3 3.5
2014-Oct-31 19:33N 39°27' W 000°19'0 0.0
2014-Oct-31 18:33N 39°27' W 000°19'0 0.0
2014-Oct-31 17:33N 39°27' W 000°19'0 0.0
2014-Oct-31 16:30N 39°27' W 000°19'0 0.0
2014-Oct-31 15:33N 39°27' W 000°19'0 0.0
2014-Oct-31 14:33N 39°27' W 000°19'0 0.0
2014-Oct-31 13:33N 39°27' W 000°19'0 0.0
2014-Oct-31 12:33N 39°27' W 000°19'0 0.0
2014-Oct-31 11:33N 39°27' W 000°19'0 0.0
2014-Oct-31 10:30N 39°27' W 000°19'0 0.0
2014-Oct-31 09:30N 39°27' W 000°19'0 0.0
2014-Oct-31 08:33N 39°27' W 000°19'0 0.0
2014-Oct-31 07:30N 39°27' W 000°19'0 0.0
2014-Oct-31 06:33N 39°27' W 000°19'0 0.0
2014-Oct-31 05:33N 39°27' W 000°19'0 0.0
2014-Oct-31 04:33N 39°27' W 000°19'0 0.0
2014-Oct-31 03:30N 39°27' W 000°19'0 0.0
2014-Oct-31 02:33N 39°27' W 000°19'0 0.0
2014-Oct-31 01:33N 39°27' W 000°19'0 0.0
2014-Oct-31 00:33N 39°27' W 000°19'0 0.0
2014-Oct-30 23:33N 39°27' W 000°19'0 0.0
2014-Oct-30 22:33N 39°27' W 000°19'0 0.0
2014-Oct-30 21:33N 39°27' W 000°19'0 0.0
2014-Oct-30 20:33N 39°27' W 000°19'0 0.0
2014-Oct-30 19:33N 39°27' W 000°19'0 0.0
2014-Oct-30 18:32N 39°27' W 000°19'0 0.0
2014-Oct-30 17:32N 39°27' W 000°19'0 0.0
2014-Oct-30 16:32N 39°27' W 000°19'0 0.0
2014-Oct-30 15:32N 39°27' W 000°19'0 0.0
2014-Oct-30 14:32N 39°27' W 000°19'5 5.4
2014-Oct-30 13:32N 39°25' W 000°12'7310.3
2014-Oct-30 06:30N 39°43' E 001°19'910.0
2014-Oct-30 05:33N 39°45' E 001°31'10 9.9
2014-Oct-30 04:33N 39°48' E 001°44'10 9.9
2014-Oct-30 03:33N 39°50' E 001°56'9 9.3
2014-Oct-30 02:33N 39°53' E 002°08'10 9.6
2014-Oct-30 01:33N 39°55' E 002°20'10 9.7
2014-Oct-30 00:33N 39°57' E 002°32'1010.1
2014-Oct-29 23:33N 39°60' E 002°45'1010.2
2014-Oct-29 22:33N 40°02' E 002°58'15 7.0
2014-Oct-29 20:23N 39°53' E 003°14'5 5.7
2014-Oct-29 19:33N 39°50' E 003°09'0 0.0
2014-Oct-29 18:31N 39°50' E 003°09'0 0.0
2014-Oct-29 17:31N 39°50' E 003°09'0 0.0
2014-Oct-29 16:19N 39°50' E 003°09'0 0.0
2014-Oct-29 15:25N 39°50' E 003°09'0 0.0
2014-Oct-29 14:31N 39°50' E 003°09'0 0.0
2014-Oct-29 13:31N 39°50' E 003°09'0 0.0
2014-Oct-29 12:31N 39°50' E 003°09'0 0.1
2014-Oct-29 11:33N 39°50' E 003°08'7 7.5
2014-Oct-29 10:33N 39°51' E 003°18'10 9.1
2014-Oct-29 09:30N 39°47' E 003°29'18 9.1
2014-Oct-29 07:32N 39°30' E 003°23'10 9.9
2014-Oct-29 06:33N 39°21' E 003°17'10 9.8
2014-Oct-29 05:33N 39°13' E 003°11'10 9.8
2014-Oct-29 04:33N 39°04' E 003°04'10 9.5
2014-Oct-29 03:33N 38°58' E 002°55'10 9.8
2014-Oct-29 02:33N 38°53' E 002°44'1210.1
2014-Oct-29 01:19N 38°48' E 002°29'14910.0
2014-Oct-28 10:27N 37°38' W 000°19'9 9.6
2014-Oct-28 09:33N 37°33' W 000°28'12 9.5
2014-Oct-28 08:20N 37°26' W 000°40'7 9.1
2014-Oct-28 07:32N 37°22' W 000°47'229 9.4
2014-Oct-27 07:15N 35°59' W 005°13'811.0
2014-Oct-27 06:33N 35°58' W 005°23'  
Track history (hours):
 
Tides and Currents Weather Stations Pressure Air Temp Water Temp Dewpoint Dewpoint Depression Visibility Wind Speed Wind Dir Waves Ship Positions

Atlantic Island

Last reported at 2014-Oct-31 20:16 UTC. Time now 2014-Oct-31 22:21 UTC.
Position N 39°25' W 000°17'.

Length 95 m; draft 3.8 m.

Type: Cargo ship. MMSI: 210754000.

Date/timePositionNaut miles runAvg speedWind from/ knotsBaromVisibWave heightAir tempDewpointWater temp
2014-Oct-31 20:16N 39°25' W 000°17'3 3.5
2014-Oct-31 19:33N 39°27' W 000°19'0 0.0
2014-Oct-31 18:33N 39°27' W 000°19'0 0.0
2014-Oct-31 17:33N 39°27' W 000°19'0 0.0
2014-Oct-31 16:30N 39°27' W 000°19'0 0.0
2014-Oct-31 15:33N 39°27' W 000°19'0 0.0
2014-Oct-31 14:33N 39°27' W 000°19'0 0.0
2014-Oct-31 13:33N 39°27' W 000°19'0 0.0
2014-Oct-31 12:33N 39°27' W 000°19'0 0.0
2014-Oct-31 11:33N 39°27' W 000°19'0 0.0
2014-Oct-31 10:30N 39°27' W 000°19'0 0.0
2014-Oct-31 09:30N 39°27' W 000°19'0 0.0
2014-Oct-31 08:33N 39°27' W 000°19'0 0.0
2014-Oct-31 07:30N 39°27' W 000°19'0 0.0
2014-Oct-31 06:33N 39°27' W 000°19'0 0.0
2014-Oct-31 05:33N 39°27' W 000°19'0 0.0
2014-Oct-31 04:33N 39°27' W 000°19'0 0.0
2014-Oct-31 03:30N 39°27' W 000°19'0 0.0
2014-Oct-31 02:33N 39°27' W 000°19'0 0.0
2014-Oct-31 01:33N 39°27' W 000°19'0 0.0
2014-Oct-31 00:33N 39°27' W 000°19'0 0.0
2014-Oct-30 23:33N 39°27' W 000°19'0 0.0
2014-Oct-30 22:33N 39°27' W 000°19'0 0.0
2014-Oct-30 21:33N 39°27' W 000°19'0 0.0
2014-Oct-30 20:33N 39°27' W 000°19'0 0.0
2014-Oct-30 19:33N 39°27' W 000°19'0 0.0
2014-Oct-30 18:32N 39°27' W 000°19'0 0.0
2014-Oct-30 17:32N 39°27' W 000°19'0 0.0
2014-Oct-30 16:32N 39°27' W 000°19'0 0.0
2014-Oct-30 15:32N 39°27' W 000°19'0 0.0
2014-Oct-30 14:32N 39°27' W 000°19'5 5.4
2014-Oct-30 13:32N 39°25' W 000°12'7310.3
2014-Oct-30 06:30N 39°43' E 001°19'910.0
2014-Oct-30 05:33N 39°45' E 001°31'10 9.9
2014-Oct-30 04:33N 39°48' E 001°44'10 9.9
2014-Oct-30 03:33N 39°50' E 001°56'9 9.3
2014-Oct-30 02:33N 39°53' E 002°08'10 9.6
2014-Oct-30 01:33N 39°55' E 002°20'10 9.7
2014-Oct-30 00:33N 39°57' E 002°32'1010.1
2014-Oct-29 23:33N 39°60' E 002°45'1010.2
2014-Oct-29 22:33N 40°02' E 002°58'15 7.0
2014-Oct-29 20:23N 39°53' E 003°14'5 5.7
2014-Oct-29 19:33N 39°50' E 003°09'0 0.0
2014-Oct-29 18:31N 39°50' E 003°09'0 0.0
2014-Oct-29 17:31N 39°50' E 003°09'0 0.0
2014-Oct-29 16:19N 39°50' E 003°09'0 0.0
2014-Oct-29 15:25N 39°50' E 003°09'0 0.0
2014-Oct-29 14:31N 39°50' E 003°09'0 0.0
2014-Oct-29 13:31N 39°50' E 003°09'0 0.0
2014-Oct-29 12:31N 39°50' E 003°09'0 0.1
2014-Oct-29 11:33N 39°50' E 003°08'7 7.5
2014-Oct-29 10:33N 39°51' E 003°18'10 9.1
2014-Oct-29 09:30N 39°47' E 003°29'18 9.1
2014-Oct-29 07:32N 39°30' E 003°23'10 9.9
2014-Oct-29 06:33N 39°21' E 003°17'10 9.8
2014-Oct-29 05:33N 39°13' E 003°11'10 9.8
2014-Oct-29 04:33N 39°04' E 003°04'10 9.5
2014-Oct-29 03:33N 38°58' E 002°55'10 9.8
2014-Oct-29 02:33N 38°53' E 002°44'1210.1
2014-Oct-29 01:19N 38°48' E 002°29'14910.0
2014-Oct-28 10:27N 37°38' W 000°19'9 9.6
2014-Oct-28 09:33N 37°33' W 000°28'12 9.5
2014-Oct-28 08:20N 37°26' W 000°40'7 9.1
2014-Oct-28 07:32N 37°22' W 000°47'229 9.4
2014-Oct-27 07:15N 35°59' W 005°13'811.0
2014-Oct-27 06:33N 35°58' W 005°23'  

Dump ship's entire track history